createdAt,value
2023-02-03T00:00:01.641Z,101828.94
2023-02-03T00:02:41.821Z,101869.97
2023-02-03T00:05:10.802Z,101866.69
2023-02-03T00:07:40.560Z,101821.38
2023-02-03T00:10:08.793Z,101852.63
2023-02-03T00:12:36.990Z,101867.69
2023-02-03T00:15:05.193Z,101863.88
2023-02-03T00:17:32.937Z,101786.97
2023-02-03T00:20:00.698Z,101865.53
2023-02-03T00:22:28.381Z,101856.66
2023-02-03T00:24:56.168Z,101811.91
2023-02-03T00:27:23.955Z,101826.28
2023-02-03T00:29:51.616Z,101823.09
2023-02-03T00:32:19.543Z,101820.63
2023-02-03T00:34:47.763Z,101850.56
2023-02-03T00:37:15.859Z,101703.47
2023-02-03T00:39:43.655Z,101848.59
2023-02-03T00:42:11.283Z,101831.97
2023-02-03T00:44:38.916Z,101733.50
2023-02-03T00:47:07.367Z,101840.94
2023-02-03T00:49:35.261Z,101846.88
2023-02-03T00:52:03.218Z,101801.78
2023-02-03T00:54:32.764Z,101819.94
2023-02-03T00:57:01.400Z,101869.81
2023-02-03T00:59:29.286Z,101799.72
2023-02-03T01:01:57.028Z,101843.09
2023-02-03T01:04:25.820Z,101844.16
2023-02-03T01:06:57.674Z,101842.84
2023-02-03T01:09:26.371Z,101820.88
2023-02-03T01:11:55.209Z,101840.94
2023-02-03T01:14:23.112Z,101811.66
2023-02-03T01:16:50.954Z,101829.34
2023-02-03T01:19:18.902Z,101839.56
2023-02-03T01:21:46.854Z,101788.81
2023-02-03T01:24:15.879Z,101856.50
2023-02-03T01:26:44.051Z,101851.06
2023-02-03T01:29:11.994Z,101792.00
2023-02-03T01:31:42.412Z,101839.88
2023-02-03T01:34:16.456Z,101789.22
2023-02-03T01:36:46.121Z,101817.75
2023-02-03T01:39:14.928Z,101795.06
2023-02-03T01:41:45.660Z,101784.25
2023-02-03T01:44:44.227Z,101839.31
2023-02-03T01:47:18.314Z,101844.47
2023-02-03T01:50:04.229Z,101838.22
2023-02-03T01:52:34.623Z,101845.28
2023-02-03T01:55:07.231Z,101841.75
2023-02-03T01:57:58.027Z,101806.63
2023-02-03T02:00:27.267Z,101792.09
2023-02-03T02:03:01.979Z,101820.44
2023-02-03T02:05:43.428Z,101826.03
2023-02-03T02:08:15.164Z,101832.31
2023-02-03T02:10:42.912Z,101780.72
2023-02-03T02:13:12.760Z,101764.78
2023-02-03T02:16:08.660Z,101818.97
2023-02-03T02:18:46.849Z,101820.63
2023-02-03T02:21:20.236Z,101830.50
2023-02-03T02:23:57.280Z,101823.94
2023-02-03T02:26:40.640Z,101807.72
2023-02-03T02:29:34.725Z,101825.22
2023-02-03T02:32:07.343Z,101829.84
2023-02-03T02:34:49.661Z,101831.97
2023-02-03T02:37:39.045Z,101834.69
2023-02-03T02:40:13.165Z,101780.97
2023-02-03T02:43:03.654Z,101825.16
2023-02-03T02:45:46.462Z,101783.53
2023-02-03T02:48:27.425Z,101822.19
2023-02-03T02:50:59.271Z,101830.34
2023-02-03T02:53:32.584Z,101827.53
2023-02-03T02:56:03.978Z,101789.38
2023-02-03T02:58:34.503Z,101755.78
2023-02-03T03:01:04.929Z,101773.91
2023-02-03T03:03:32.625Z,101825.38
2023-02-03T03:06:05.307Z,101817.84
2023-02-03T03:08:57.269Z,101809.94
2023-02-03T03:11:28.711Z,101731.19
2023-02-03T03:13:59.576Z,101797.59
2023-02-03T03:16:33.664Z,101807.44
2023-02-03T03:19:12.071Z,101794.53
2023-02-03T03:21:48.147Z,101801.56
2023-02-03T03:24:22.636Z,101779.50
2023-02-03T03:26:56.515Z,101789.69
2023-02-03T03:29:36.131Z,101798.84
2023-02-03T03:32:04.559Z,101740.66
2023-02-03T03:34:33.005Z,101708.66
2023-02-03T03:37:16.882Z,101769.81
2023-02-03T03:40:00.190Z,101739.72
2023-02-03T03:42:43.122Z,101796.19
2023-02-03T03:45:15.165Z,101795.13
2023-02-03T03:47:49.244Z,101802.63
2023-02-03T03:50:23.981Z,101760.91
2023-02-03T03:52:53.277Z,101742.28
2023-02-03T03:55:21.810Z,101752.69
2023-02-03T03:57:59.444Z,101792.34
2023-02-03T04:00:31.311Z,101724.78
2023-02-03T04:03:05.747Z,101667.31
2023-02-03T04:05:34.899Z,101801.56
2023-02-03T04:08:03.876Z,101663.69
2023-02-03T04:10:41.192Z,101798.25
2023-02-03T04:13:09.369Z,101791.09
2023-02-03T04:15:37.352Z,101727.09
2023-02-03T04:18:05.880Z,101797.34
2023-02-03T04:20:34.274Z,101807.97
2023-02-03T04:23:02.136Z,101785.56
2023-02-03T04:25:29.781Z,101802.69
2023-02-03T04:27:57.646Z,101786.81
2023-02-03T04:30:25.914Z,101812.72
2023-02-03T04:32:54.511Z,101795.94
2023-02-03T04:35:23.304Z,101774.84
2023-02-03T04:37:51.341Z,101706.75
2023-02-03T04:40:19.378Z,101743.09
2023-02-03T04:42:47.121Z,101763.19
2023-02-03T04:45:14.875Z,101789.13
2023-02-03T04:47:42.898Z,101778.88
2023-02-03T04:50:10.786Z,101775.81
2023-02-03T04:52:38.586Z,101744.69
2023-02-03T04:55:06.809Z,101806.31
2023-02-03T04:57:34.984Z,101775.34
2023-02-03T05:00:02.724Z,101744.25
2023-02-03T05:02:30.382Z,101818.56
2023-02-03T05:04:58.011Z,101778.63
2023-02-03T05:07:25.707Z,101792.50
2023-02-03T05:09:53.321Z,101752.06
2023-02-03T05:12:20.941Z,101733.63
2023-02-03T05:14:48.662Z,101797.91
2023-02-03T05:17:16.426Z,101799.56
2023-02-03T05:19:44.184Z,101797.91
2023-02-03T05:22:12.419Z,101801.13
2023-02-03T05:24:40.316Z,101771.72
2023-02-03T05:27:08.143Z,101803.19
2023-02-03T05:29:36.089Z,101806.72
2023-02-03T05:32:04.362Z,101773.03
2023-02-03T05:34:32.120Z,101791.97
2023-02-03T05:37:00.995Z,101817.16
2023-02-03T05:39:28.685Z,101824.22
2023-02-03T05:41:58.275Z,101825.97
2023-02-03T05:44:28.554Z,101822.03
2023-02-03T05:46:59.093Z,101800.38
2023-02-03T05:49:27.274Z,101729.03
2023-02-03T05:51:56.630Z,101832.69
2023-02-03T05:54:24.283Z,101831.41
2023-02-03T05:56:52.648Z,101804.84
2023-02-03T05:59:20.422Z,101821.63
2023-02-03T06:01:48.898Z,101785.44
2023-02-03T06:04:16.705Z,101830.34
2023-02-03T06:06:44.324Z,101850.06
2023-02-03T06:09:11.985Z,101815.84
2023-02-03T06:11:39.686Z,101807.88
2023-02-03T06:14:07.305Z,101858.00
2023-02-03T06:16:35.027Z,101840.13
2023-02-03T06:19:02.836Z,101758.00
2023-02-03T06:21:31.388Z,101780.97
2023-02-03T06:23:59.216Z,101862.19
2023-02-03T06:26:27.072Z,101856.16
2023-02-03T06:28:54.978Z,101849.25
2023-02-03T06:31:23.439Z,101835.59
2023-02-03T06:33:51.192Z,101867.13
2023-02-03T06:36:18.998Z,101783.59
2023-02-03T06:38:46.766Z,101832.97
2023-02-03T06:41:14.563Z,101865.63
2023-02-03T06:43:42.180Z,101802.19
2023-02-03T06:46:10.116Z,101816.16
2023-02-03T06:48:37.805Z,101885.19
2023-02-03T06:51:06.569Z,101830.31
2023-02-03T06:53:34.379Z,101880.59
2023-02-03T06:56:03.499Z,101861.13
2023-02-03T06:58:31.480Z,101888.44
2023-02-03T07:00:59.289Z,101861.84
2023-02-03T07:03:27.078Z,101834.19
2023-02-03T07:05:54.806Z,101892.88
2023-02-03T07:08:22.409Z,101876.75
2023-02-03T07:10:56.506Z,101884.38
2023-02-03T07:13:24.248Z,101889.81
2023-02-03T07:15:51.982Z,101897.38
2023-02-03T07:18:45.750Z,101903.06
2023-02-03T07:21:14.199Z,101887.41
2023-02-03T07:23:42.108Z,101906.19
2023-02-03T07:26:11.028Z,101910.28
2023-02-03T07:28:38.652Z,101867.72
2023-02-03T07:31:08.344Z,101864.53
2023-02-03T07:33:37.135Z,101911.84
2023-02-03T07:36:05.381Z,101903.53
2023-02-03T07:38:33.411Z,101862.88
2023-02-03T07:41:01.073Z,101928.97
2023-02-03T07:43:28.819Z,101927.31
2023-02-03T07:45:56.982Z,101895.34
2023-02-03T07:48:25.369Z,101892.78
2023-02-03T07:50:53.087Z,101890.06
2023-02-03T07:53:21.156Z,101881.25
2023-02-03T07:55:49.627Z,101938.66
2023-02-03T07:58:17.388Z,101923.84
2023-02-03T08:00:45.336Z,101961.97
2023-02-03T08:03:13.149Z,101959.25
2023-02-03T08:05:40.806Z,101928.69
2023-02-03T08:08:08.755Z,101965.16
2023-02-03T08:10:36.708Z,101891.13
2023-02-03T08:13:04.397Z,101934.44
2023-02-03T08:15:32.401Z,101924.16
2023-02-03T08:18:00.611Z,101894.28
2023-02-03T08:20:28.523Z,101967.00
2023-02-03T08:22:56.543Z,101926.88
2023-02-03T08:25:24.336Z,101940.06
2023-02-03T08:27:53.984Z,101953.66
2023-02-03T08:30:23.175Z,101918.16
2023-02-03T08:32:50.921Z,101979.53
2023-02-03T08:35:19.325Z,101968.16
2023-02-03T08:37:47.323Z,101982.31
2023-02-03T08:40:15.874Z,101980.75
2023-02-03T08:42:44.047Z,101977.69
2023-02-03T08:45:12.158Z,101975.50
2023-02-03T08:47:40.359Z,101914.81
2023-02-03T08:50:09.419Z,101970.72
2023-02-03T08:52:37.488Z,101887.88
2023-02-03T08:55:06.168Z,101991.03
2023-02-03T08:57:37.931Z,101997.53
2023-02-03T09:00:06.823Z,101920.59
2023-02-03T09:02:34.822Z,101900.19
2023-02-03T09:05:03.041Z,101979.41
2023-02-03T09:07:30.882Z,101932.78
2023-02-03T09:09:58.489Z,101955.28
2023-02-03T09:12:26.188Z,102011.19
2023-02-03T09:14:54.226Z,102013.91
2023-02-03T09:17:22.025Z,101984.28
2023-02-03T09:19:49.829Z,101998.03
2023-02-03T09:22:17.698Z,102014.72
2023-02-03T09:24:45.752Z,101979.66
2023-02-03T09:27:13.511Z,101937.16
2023-02-03T09:29:41.374Z,101991.34
2023-02-03T09:32:11.113Z,101919.06
2023-02-03T09:34:41.420Z,101934.63
2023-02-03T09:37:09.363Z,102000.00
2023-02-03T09:39:37.435Z,102016.44
2023-02-03T09:42:14.250Z,102008.28
2023-02-03T09:44:46.826Z,101981.69
2023-02-03T09:47:23.040Z,101934.84
2023-02-03T09:49:58.503Z,101958.22
2023-02-03T09:52:32.967Z,102013.78
2023-02-03T09:55:31.905Z,102007.78
2023-02-03T09:58:14.369Z,102003.75
2023-02-03T10:00:44.891Z,102009.50
2023-02-03T10:03:28.007Z,102014.19
2023-02-03T10:06:20.559Z,102015.16
2023-02-03T10:09:00.037Z,102015.16
2023-02-03T10:11:41.216Z,102017.63
2023-02-03T10:14:30.588Z,102021.97
2023-02-03T10:17:32.311Z,102022.78
2023-02-03T10:20:07.404Z,102022.22
2023-02-03T10:22:42.248Z,102016.66
2023-02-03T10:25:44.612Z,102025.22
2023-02-03T10:28:19.844Z,101964.97
2023-02-03T10:30:52.374Z,101974.53
2023-02-03T10:33:22.339Z,102002.41
2023-02-03T10:36:02.422Z,102019.13
2023-02-03T10:38:50.282Z,102011.69
2023-02-03T10:41:20.778Z,102017.66
2023-02-03T10:43:53.821Z,102001.69
2023-02-03T10:46:29.875Z,101952.31
2023-02-03T10:48:57.768Z,101992.31
2023-02-03T10:51:26.833Z,102011.56
2023-02-03T10:53:58.410Z,101943.75
2023-02-03T10:56:30.205Z,102008.75
2023-02-03T10:59:00.915Z,101992.06
2023-02-03T11:01:50.377Z,102006.63
2023-02-03T11:04:27.809Z,101985.53
2023-02-03T11:07:08.415Z,101983.25
2023-02-03T11:09:42.240Z,101927.44
2023-02-03T11:12:23.637Z,101985.72
2023-02-03T11:14:53.755Z,101987.59
2023-02-03T11:17:27.601Z,101936.63
2023-02-03T11:20:20.411Z,101926.44
2023-02-03T11:22:48.887Z,101981.34
2023-02-03T11:25:20.929Z,101949.31
2023-02-03T11:27:49.010Z,101963.44
2023-02-03T11:30:30.561Z,101893.56
2023-02-03T11:33:02.278Z,101905.69
2023-02-03T11:35:31.985Z,101928.13
2023-02-03T11:38:01.943Z,101946.75
2023-02-03T11:40:34.551Z,101944.03
2023-02-03T11:43:17.300Z,101921.44
2023-02-03T11:45:49.490Z,101894.31
2023-02-03T11:48:37.914Z,101906.66
2023-02-03T11:51:26.709Z,101936.34
2023-02-03T11:54:11.720Z,101932.59
2023-02-03T11:57:20.168Z,101929.84
2023-02-03T12:00:00.147Z,101922.50
2023-02-03T12:02:40.062Z,101928.19
2023-02-03T12:05:26.635Z,101927.56
2023-02-03T12:08:19.038Z,101916.22
2023-02-03T12:11:04.891Z,101878.41
2023-02-03T12:13:56.394Z,101894.09
2023-02-03T12:17:07.607Z,101877.16
2023-02-03T12:19:53.887Z,101886.59
2023-02-03T12:22:45.292Z,101835.84
2023-02-03T12:25:35.052Z,101876.16
2023-02-03T12:28:33.561Z,101833.97
2023-02-03T12:31:14.847Z,101866.72
2023-02-03T12:33:53.980Z,101814.28
2023-02-03T12:36:28.870Z,101796.34
2023-02-03T12:39:04.121Z,101854.50
2023-02-03T12:41:40.993Z,101862.47
2023-02-03T12:44:32.501Z,101790.00
2023-02-03T12:47:22.983Z,101846.91
2023-02-03T12:49:55.495Z,101821.16
2023-02-03T12:52:29.528Z,101836.88
2023-02-03T12:55:15.239Z,101838.47
2023-02-03T12:57:48.923Z,101835.53
2023-02-03T13:00:48.816Z,101708.94
2023-02-03T13:03:41.429Z,101821.97
2023-02-03T13:06:24.868Z,101816.56
2023-02-03T13:09:24.545Z,101773.94
2023-02-03T13:12:22.610Z,101805.72
2023-02-03T13:14:55.880Z,101743.88
2023-02-03T13:17:42.166Z,101787.94
2023-02-03T13:20:27.297Z,101754.81
2023-02-03T13:22:55.365Z,101802.44
2023-02-03T13:25:35.388Z,101798.63
2023-02-03T13:28:32.283Z,101774.59
2023-02-03T13:31:13.830Z,101789.91
2023-02-03T13:34:07.442Z,101792.09
2023-02-03T13:36:51.171Z,101802.97
2023-02-03T13:39:43.938Z,101810.34
2023-02-03T13:42:22.165Z,101804.03
2023-02-03T13:44:59.616Z,101788.97
2023-02-03T13:47:32.745Z,101762.44
2023-02-03T13:50:16.832Z,101811.59
2023-02-03T13:52:56.294Z,101805.59
2023-02-03T13:55:33.519Z,101797.84
2023-02-03T13:58:01.924Z,101801.38
2023-02-03T14:00:45.420Z,101807.41
2023-02-03T14:03:39.979Z,101814.22
2023-02-03T14:06:55.729Z,101770.41
2023-02-03T14:09:35.535Z,101808.50
2023-02-03T14:12:15.605Z,101812.53
2023-02-03T14:14:55.559Z,101786.31
2023-02-03T14:17:35.722Z,101815.53
2023-02-03T14:20:24.608Z,101744.63
2023-02-03T14:23:21.397Z,101774.13
2023-02-03T14:25:55.564Z,101802.91
2023-02-03T14:28:42.986Z,101821.22
2023-02-03T14:31:25.384Z,101768.59
2023-02-03T14:33:57.802Z,101814.16
2023-02-03T14:36:35.234Z,101806.22
2023-02-03T14:39:22.640Z,101808.91
2023-02-03T14:42:02.743Z,101807.56
2023-02-03T14:44:36.441Z,101802.66
2023-02-03T14:47:26.109Z,101802.66
2023-02-03T14:50:15.631Z,101811.09
2023-02-03T14:53:02.171Z,101813.22
2023-02-03T14:55:39.773Z,101813.22
2023-02-03T14:58:23.092Z,101802.31
2023-02-03T15:00:54.737Z,101792.19
2023-02-03T15:03:30.455Z,101713.88
2023-02-03T15:06:05.099Z,101809.22
2023-02-03T15:08:44.551Z,101732.00
2023-02-03T15:11:46.998Z,101786.72
2023-02-03T15:14:31.596Z,101754.91
2023-02-03T15:17:02.551Z,101817.84
2023-02-03T15:19:41.007Z,101774.28
2023-02-03T15:22:27.529Z,101820.28
2023-02-03T15:25:19.752Z,101754.28
2023-02-03T15:27:48.181Z,101773.97
2023-02-03T15:30:27.777Z,101821.66
2023-02-03T15:33:04.551Z,101805.13
2023-02-03T15:35:34.584Z,101829.81
2023-02-03T15:38:28.009Z,101768.34
2023-02-03T15:40:59.072Z,101827.72
2023-02-03T15:43:39.564Z,101793.78
2023-02-03T15:46:27.085Z,101842.25
2023-02-03T15:49:00.256Z,101838.69
2023-02-03T15:51:36.613Z,101809.31
2023-02-03T15:54:30.774Z,101833.34
2023-02-03T15:56:58.611Z,101834.06
2023-02-03T15:59:30.671Z,101841.41
2023-02-03T16:02:01.156Z,101841.69
2023-02-03T16:04:31.250Z,101834.59
2023-02-03T16:06:59.646Z,101785.91
2023-02-03T16:09:39.756Z,101818.84
2023-02-03T16:12:24.561Z,101817.50
2023-02-03T16:14:54.137Z,101816.41
2023-02-03T16:17:31.822Z,101816.72
2023-02-03T16:20:11.702Z,101824.38
2023-02-03T16:22:46.379Z,101824.09
2023-02-03T16:25:24.134Z,101812.31
2023-02-03T16:28:18.451Z,101789.84
2023-02-03T16:31:38.792Z,101815.72
2023-02-03T16:34:36.167Z,101714.94
2023-02-03T16:37:52.294Z,101827.41
2023-02-03T16:40:42.702Z,101773.41
2023-02-03T16:43:34.487Z,101825.97
2023-02-03T16:46:20.839Z,101686.34
2023-02-03T16:49:07.392Z,101706.03
2023-02-03T16:51:40.224Z,101831.91
2023-02-03T16:54:14.424Z,101802.84
2023-02-03T16:56:42.222Z,101841.97
2023-02-03T16:59:11.092Z,101799.25
2023-02-03T17:01:40.731Z,101840.03
2023-02-03T17:04:13.731Z,101840.88
2023-02-03T17:06:41.628Z,101859.31
2023-02-03T17:09:09.356Z,101810.84
2023-02-03T17:11:37.189Z,101851.66
2023-02-03T17:14:05.074Z,101757.22
2023-02-03T17:16:34.185Z,101788.91
2023-02-03T17:19:03.227Z,101774.59
2023-02-03T17:21:31.553Z,101845.59
2023-02-03T17:24:00.251Z,101841.97
2023-02-03T17:26:28.273Z,101814.63
2023-02-03T17:28:56.093Z,101869.16
2023-02-03T17:31:23.974Z,101863.91
2023-02-03T17:33:53.330Z,101868.78
2023-02-03T17:36:22.125Z,101868.88
2023-02-03T17:55:22.495Z,101879.13
2023-02-03T17:57:50.247Z,101858.88
2023-02-03T18:00:18.377Z,101875.31
2023-02-03T18:02:50.945Z,101878.28
2023-02-03T18:05:19.322Z,101785.56
2023-02-03T18:10:19.921Z,101847.13
2023-02-03T18:12:47.700Z,101847.41
2023-02-03T18:15:16.856Z,101814.94
2023-02-03T18:17:44.595Z,101824.16
2023-02-03T18:20:13.846Z,101857.84
2023-02-03T18:22:41.745Z,101833.72
2023-02-03T18:25:10.184Z,101837.69
2023-02-03T18:27:38.426Z,101832.13
2023-02-03T18:30:06.850Z,101824.25
2023-02-03T18:32:35.060Z,101871.50
2023-02-03T18:35:03.839Z,101850.75
2023-02-03T18:37:31.721Z,101873.78
2023-02-03T18:40:00.945Z,101842.56
2023-02-03T18:42:28.942Z,101817.38
2023-02-03T18:44:56.588Z,101872.16
2023-02-03T18:47:24.474Z,101796.34
2023-02-03T18:49:52.199Z,101859.66
2023-02-03T18:52:20.221Z,101827.81
2023-02-03T18:54:49.994Z,101864.28
2023-02-03T18:57:17.956Z,101830.53
2023-02-03T18:59:46.033Z,101794.44
2023-02-03T19:02:13.796Z,101743.22
2023-02-03T19:04:43.581Z,101874.88
2023-02-03T19:07:13.315Z,101843.06
2023-02-03T19:09:41.345Z,101856.66
2023-02-03T19:12:09.946Z,101881.09
2023-02-03T19:14:37.810Z,101871.22
2023-02-03T19:17:05.568Z,101853.47
2023-02-03T19:19:34.194Z,101797.63
2023-02-03T19:22:02.070Z,101890.56
2023-02-03T19:24:31.025Z,101792.94
2023-02-03T19:26:58.728Z,101886.41
2023-02-03T19:29:26.652Z,101871.97
2023-02-03T19:31:54.493Z,101751.75
2023-02-03T19:34:22.730Z,101917.78
2023-02-03T19:36:52.045Z,101906.03
2023-02-03T19:39:21.755Z,101918.94
2023-02-03T19:41:49.628Z,101919.28
2023-02-03T19:44:18.957Z,101881.75
2023-02-03T19:46:46.736Z,101898.16
2023-02-03T19:49:15.323Z,101888.84
2023-02-03T19:51:44.068Z,101797.91
2023-02-03T19:54:15.270Z,101761.75
2023-02-03T19:56:44.686Z,101934.78
2023-02-03T19:59:14.041Z,101931.25
2023-02-03T20:01:42.836Z,101885.47
2023-02-03T20:04:11.656Z,101932.56
2023-02-03T20:06:39.636Z,101855.13
2023-02-03T20:09:07.571Z,101778.94
2023-02-03T20:11:37.391Z,101925.47
2023-02-03T20:14:05.549Z,101887.13
2023-02-03T20:16:33.361Z,101919.06
2023-02-03T20:19:01.421Z,101899.19
2023-02-03T20:21:29.502Z,101895.56
2023-02-03T20:23:57.261Z,101900.81
2023-02-03T20:26:25.050Z,101868.94
2023-02-03T20:28:52.970Z,101904.69
2023-02-03T20:31:21.801Z,101863.25
2023-02-03T20:33:49.671Z,101938.22
2023-02-03T20:36:18.265Z,101802.13
2023-02-03T20:38:46.537Z,101843.19
2023-02-03T20:41:18.284Z,101920.84
2023-02-03T20:43:46.157Z,101893.44
2023-02-03T20:46:17.739Z,101909.34
2023-02-03T20:48:46.432Z,101795.94
2023-02-03T20:51:16.553Z,101775.22
2023-02-03T20:53:44.795Z,101917.22
2023-02-03T20:56:18.414Z,101805.84
2023-02-03T20:58:46.349Z,101900.88
2023-02-03T21:01:19.207Z,101893.63
2023-02-03T21:04:06.616Z,101903.44
2023-02-03T21:06:34.914Z,101893.28
2023-02-03T21:09:18.233Z,101897.09
2023-02-03T21:11:46.259Z,101791.88
2023-02-03T21:14:22.083Z,101885.91
2023-02-03T21:16:50.886Z,101866.34
2023-02-03T21:19:30.198Z,101892.16
2023-02-03T21:21:58.449Z,101884.22
2023-02-03T21:24:33.642Z,101884.56
2023-02-03T21:27:02.716Z,101864.31
2023-02-03T21:29:36.965Z,101855.91
2023-02-03T21:32:13.532Z,101890.69
2023-02-03T21:34:43.976Z,101835.31
2023-02-03T21:37:20.811Z,101878.69
2023-02-03T21:39:49.316Z,101835.94
2023-02-03T21:42:43.515Z,101869.34
2023-02-03T21:45:14.592Z,101873.16
2023-02-03T21:47:46.975Z,101837.50
2023-02-03T21:50:31.297Z,101863.81
2023-02-03T21:53:16.340Z,101832.53
2023-02-03T21:55:44.373Z,101844.53
2023-02-03T21:58:12.103Z,101856.03
2023-02-03T22:00:47.585Z,101814.38
2023-02-03T22:03:27.294Z,101741.22
2023-02-03T22:06:19.401Z,101817.91
2023-02-03T22:08:49.943Z,101847.81
2023-02-03T22:11:20.159Z,101848.91
2023-02-03T22:13:48.169Z,101847.81
2023-02-03T22:16:19.641Z,101820.97
2023-02-03T22:18:49.010Z,101809.00
2023-02-03T22:21:17.655Z,101760.84
2023-02-03T22:23:45.684Z,101812.84
2023-02-03T22:26:14.685Z,101740.25
2023-02-03T22:28:43.428Z,101834.72
2023-02-03T22:31:13.204Z,101784.09
2023-02-03T22:33:42.163Z,101821.09
2023-02-03T22:36:11.009Z,101808.44
2023-02-03T22:38:41.495Z,101804.59
2023-02-03T22:41:14.260Z,101795.50
2023-02-03T22:43:42.062Z,101823.69
2023-02-03T22:46:10.158Z,101802.31
2023-02-03T22:48:38.973Z,101820.06
2023-02-03T22:51:07.071Z,101794.16
2023-02-03T22:53:35.089Z,101819.88
2023-02-03T22:56:03.416Z,101782.47
2023-02-03T22:58:31.298Z,101801.72
2023-02-03T23:00:59.427Z,101760.09
2023-02-03T23:03:28.188Z,101710.50
2023-02-03T23:05:58.427Z,101752.22
2023-02-03T23:08:26.093Z,101791.09
2023-02-03T23:10:53.950Z,101787.25
2023-02-03T23:13:22.303Z,101773.22
2023-02-03T23:15:50.210Z,101709.13
2023-02-03T23:18:18.311Z,101749.41
2023-02-03T23:20:46.228Z,101636.03
2023-02-03T23:23:14.462Z,101735.13
2023-02-03T23:25:42.512Z,101743.34
2023-02-03T23:28:10.591Z,101755.41
2023-02-03T23:30:38.359Z,101728.56
2023-02-03T23:33:06.229Z,101775.13
2023-02-03T23:35:46.075Z,101732.47
2023-02-03T23:38:15.376Z,101784.47
2023-02-03T23:40:43.658Z,101764.50
2023-02-03T23:43:11.416Z,101748.31
2023-02-03T23:45:39.375Z,101788.53
2023-02-03T23:48:07.823Z,101773.03
2023-02-03T23:50:35.762Z,101751.03
2023-02-03T23:53:03.368Z,101745.94
2023-02-03T23:55:31.548Z,101774.69
2023-02-03T23:57:59.496Z,101725.91
